Adams Gardens, Texas
Current Conditions -  °F | °C
As of 12:52 AM on Thursday 18 Dec 2014 (Local Time) from KHRL Reporting Station
Overcast Overcast  
Wind Chill: 72°   Ceiling: 3500
Heat Index: 72°   Visibility: 10mi
Dew Point: 69°   Wind: 9mph
Humidity: 91%   Direction: 160°SSE
Pressure: 30.02"   Gusts: NA
Location:  26.2089°N, 97.6849°W
Report Text: KHRL 180652Z 16008KT 10SM BKN035 OVC055 22/21 A3002 RMK AO2 SLP164 T02220206
Loading
Personal Weather Stations






























Interactive Weather Map New forecast layout! Learn more

10-Day Weather Forecast

Advertisements
Track Severe Weather on mobile